Ocean Atlantic — C6CB6 — position and weather

sailwx.info

Track history (hours):
 
Tides and Currents Weather Stations Pressure Air Temp Water Temp Dewpoint Dewpoint Depression Visibility Wind Speed Wind Dir Waves Ship Positions

Ocean Atlantic

Last reported at 2017-Nov-07 18:23 UTC. Time now 2017-Nov-24 23:59 UTC.
Position N 27°40' W 015°19'.
Warning: this ship's position is 17 days out of date.

Length 140 m; draft 5.7 m.

Type: Passenger vessel. MMSI: 311000422.

Date/timePositionNaut miles runAvg speedWind from/ knotsBaromVisibWave heightAir tempDewpointWater temp
2017-Nov-07 18:23N 27°40' W 015°19'4 9.3
2017-Nov-07 18:00N 27°44' W 015°18'5 9.9
2017-Nov-07 17:30N 27°48' W 015°17'5 9.5
2017-Nov-07 17:00N 27°53' W 015°16'510.0
2017-Nov-07 16:30N 27°58' W 015°17'5 9.3
2017-Nov-07 16:00N 28°02' W 015°19'4 8.3
2017-Nov-07 15:30N 28°06' W 015°21'4 7.4
2017-Nov-07 15:00N 28°08' W 015°25'1 1.8
2017-Nov-07 14:24N 28°09' W 015°25'0 0.0
2017-Nov-07 13:54N 28°09' W 015°25'0 0.0
2017-Nov-07 13:24N 28°09' W 015°25'0 0.0
2017-Nov-07 12:54N 28°09' W 015°25'0 0.0
2017-Nov-07 12:24N 28°09' W 015°25'0 0.0
2017-Nov-07 11:54N 28°09' W 015°25'0 0.0
2017-Nov-07 11:24N 28°09' W 015°25'0 0.0
2017-Nov-07 10:57N 28°09' W 015°25'0 0.0
2017-Nov-07 10:27N 28°09' W 015°25'0 0.0
2017-Nov-07 09:57N 28°09' W 015°25'0 0.0
2017-Nov-07 09:27N 28°09' W 015°25'0 0.0
2017-Nov-07 08:57N 28°09' W 015°25'0 0.0
2017-Nov-07 08:30N 28°09' W 015°25'0 0.0
2017-Nov-07 08:00N 28°09' W 015°25'0 0.0
2017-Nov-07 07:30N 28°09' W 015°25'0 0.0
2017-Nov-07 07:00N 28°09' W 015°25'0 0.0
2017-Nov-07 06:30N 28°09' W 015°25'0 0.0
2017-Nov-07 06:00N 28°09' W 015°25'0 0.0
2017-Nov-07 05:30N 28°09' W 015°25'0 0.0
2017-Nov-07 05:00N 28°09' W 015°25'0 0.0
2017-Nov-07 04:30N 28°09' W 015°25'0 0.0
2017-Nov-07 04:00N 28°09' W 015°25'0 0.0
2017-Nov-07 03:30N 28°09' W 015°25'0 0.0
2017-Nov-07 03:00N 28°09' W 015°25'0 0.0
2017-Nov-07 02:30N 28°09' W 015°25'0 0.0
2017-Nov-07 02:00N 28°09' W 015°25'0 0.0
2017-Nov-07 01:21N 28°09' W 015°25'0 0.0
2017-Nov-07 00:51N 28°09' W 015°25'0 0.0
2017-Nov-07 00:24N 28°09' W 015°25'0 0.0
2017-Nov-06 23:54N 28°09' W 015°25'0 0.0
2017-Nov-06 23:24N 28°09' W 015°25'0 0.0
2017-Nov-06 22:54N 28°09' W 015°25'0 0.0
2017-Nov-06 22:24N 28°09' W 015°25'0 0.0
2017-Nov-06 21:51N 28°09' W 015°25'0 0.0
2017-Nov-06 21:27N 28°09' W 015°25'0 0.0
2017-Nov-06 20:57N 28°09' W 015°25'0 0.0
2017-Nov-06 20:27N 28°09' W 015°25'0 0.0
2017-Nov-06 02:30N 28°09' W 015°25'0 0.0
2017-Nov-06 02:00N 28°09' W 015°25'0 0.0
2017-Nov-06 01:30N 28°09' W 015°25'0 0.0
2017-Nov-06 01:00N 28°09' W 015°25'0 0.0
2017-Nov-06 00:30N 28°09' W 015°25'0 0.0
2017-Nov-06 00:00N 28°09' W 015°25'0 0.0
2017-Nov-05 23:30N 28°09' W 015°25'0 0.0
2017-Nov-05 23:00N 28°09' W 015°25'0 0.0
2017-Nov-05 22:30N 28°09' W 015°25'0 0.0
2017-Nov-05 22:00N 28°09' W 015°25'1 2.1
2017-Nov-05 21:30N 28°08' W 015°25'2 4.0
2017-Nov-05 21:00N 28°07' W 015°23'1 1.2
2017-Nov-05 20:30N 28°07' W 015°23'5 9.6
2017-Nov-05 20:00N 28°04' W 015°18'714.6
2017-Nov-05 19:30N 27°57' W 015°15'714.3
2017-Nov-05 19:00N 27°51' W 015°11'612.4
2017-Nov-05 18:30N 27°47' W 015°05'3 6.9
2017-Nov-05 18:00N 27°45' W 015°03'1 1.9
2017-Nov-05 17:30N 27°45' W 015°02'1 1.8
2017-Nov-05 17:00N 27°46' W 015°01'1 1.8
2017-Nov-05 16:30N 27°47' W 015°00'1 2.4
2017-Nov-05 16:00N 27°46' W 015°01'3 6.5
2017-Nov-05 15:28N 27°46' W 015°05'510.8
2017-Nov-05 15:00N 27°49' W 015°10'611.7
2017-Nov-05 14:30N 27°54' W 015°13'5 9.3
2017-Nov-05 14:00N 27°58' W 015°16'612.8
2017-Nov-05 13:30N 28°04' W 015°19'5 9.7
2017-Nov-05 13:00N 28°07' W 015°23'3 5.4
2017-Nov-05 12:30N 28°09' W 015°25'0 0.3
2017-Nov-05 12:00N 28°09' W 015°25'0 0.0
2017-Nov-05 11:30N 28°09' W 015°25'0 0.0
2017-Nov-05 11:00N 28°09' W 015°25'0 0.0
2017-Nov-05 10:30N 28°09' W 015°25'0 0.0
2017-Nov-05 10:00N 28°09' W 015°25'0 0.0
2017-Nov-05 09:30N 28°09' W 015°25'0 0.0
2017-Nov-05 09:00N 28°09' W 015°25'0 0.0
2017-Nov-05 08:30N 28°09' W 015°25'0 0.0
2017-Nov-05 08:00N 28°09' W 015°25'0 0.0
2017-Nov-05 07:30N 28°09' W 015°25'0 0.0
2017-Nov-05 07:00N 28°09' W 015°25'0 0.0
2017-Nov-05 06:30N 28°09' W 015°25'0 0.0
2017-Nov-05 06:00N 28°09' W 015°25'0 0.0
2017-Nov-05 05:30N 28°09' W 015°25'0 0.0
2017-Nov-05 05:00N 28°09' W 015°25'0 0.0
2017-Nov-05 04:30N 28°09' W 015°25'0 0.0
2017-Nov-05 04:00N 28°09' W 015°25'0 0.0
2017-Nov-05 03:30N 28°09' W 015°25'0 0.0
2017-Nov-05 03:00N 28°09' W 015°25'0 0.0
2017-Nov-05 02:30N 28°09' W 015°25'0 0.0
2017-Nov-05 02:00N 28°09' W 015°25'0 0.0
2017-Nov-05 01:30N 28°09' W 015°25'0 0.0
2017-Nov-05 01:00N 28°09' W 015°25'0 0.0
2017-Nov-05 00:30N 28°09' W 015°25'0 0.0
2017-Nov-05 00:00N 28°09' W 015°25'0 0.0
2017-Nov-04 23:30N 28°09' W 015°25'0 0.0
2017-Nov-04 23:00N 28°09' W 015°25'0 0.0
2017-Nov-04 22:30N 28°09' W 015°25'0 0.0
2017-Nov-04 22:00N 28°09' W 015°25'0 0.0
2017-Nov-04 21:30N 28°09' W 015°25'0 0.0
2017-Nov-04 21:00N 28°09' W 015°25'0 0.0
2017-Nov-04 20:30N 28°09' W 015°25'0 0.0
2017-Nov-04 20:00N 28°09' W 015°25'0 0.0
2017-Nov-04 19:30N 28°09' W 015°25'0 0.0
2017-Nov-04 19:00N 28°09' W 015°25'0 0.0
2017-Nov-04 18:30N 28°09' W 015°25'0 0.0
2017-Nov-04 18:00N 28°09' W 015°25'0 0.0
2017-Nov-04 17:30N 28°09' W 015°25'0 0.0
2017-Nov-04 17:00N 28°09' W 015°25'0 0.0
2017-Nov-04 16:30N 28°09' W 015°25'0 0.0
2017-Nov-04 16:00N 28°09' W 015°25'0 0.0
2017-Nov-04 15:30N 28°09' W 015°25'0 0.0
2017-Nov-04 15:00N 28°09' W 015°25'0 0.0
2017-Nov-04 14:30N 28°09' W 015°25'0 0.0
2017-Nov-04 14:00N 28°09' W 015°25'0 0.0
2017-Nov-04 13:30N 28°09' W 015°25'0 0.0
2017-Nov-04 13:00N 28°09' W 015°25'0 0.0
2017-Nov-04 12:30N 28°09' W 015°25'0 0.0
2017-Nov-04 12:00N 28°09' W 015°25'0 0.0
2017-Nov-04 11:30N 28°09' W 015°25'0 0.0
2017-Nov-04 11:00N 28°09' W 015°25'0 0.0
2017-Nov-04 10:30N 28°09' W 015°25'0 0.0
2017-Nov-04 10:00N 28°09' W 015°25'0 0.0
2017-Nov-04 09:30N 28°09' W 015°25'0 0.0
2017-Nov-04 09:00N 28°09' W 015°25'0 0.0
2017-Nov-04 08:30N 28°09' W 015°25'0 0.0
2017-Nov-04 08:00N 28°09' W 015°25'0 0.0
2017-Nov-04 07:30N 28°09' W 015°25'0 0.0
2017-Nov-04 07:00N 28°09' W 015°25'0 0.0
2017-Nov-04 06:30N 28°09' W 015°25'0 0.0
2017-Nov-04 06:00N 28°09' W 015°25'0 0.0
2017-Nov-04 05:30N 28°09' W 015°25'0 0.0
2017-Nov-04 05:00N 28°09' W 015°25'0 0.0
2017-Nov-04 04:30N 28°09' W 015°25'0 0.0
2017-Nov-04 04:00N 28°09' W 015°25'0 0.0
2017-Nov-04 03:30N 28°09' W 015°25'0 0.0
2017-Nov-04 03:00N 28°09' W 015°25'0 0.0
2017-Nov-04 02:30N 28°09' W 015°25'0 0.0
2017-Nov-04 02:00N 28°09' W 015°25'0 0.0
2017-Nov-04 01:30N 28°09' W 015°25'0 0.0
2017-Nov-04 01:00N 28°09' W 015°25'0 0.0
2017-Nov-04 00:30N 28°09' W 015°25'0 0.0
2017-Nov-04 00:00N 28°09' W 015°25'0 0.0
2017-Nov-03 23:30N 28°09' W 015°25'0 0.0
2017-Nov-03 23:00N 28°09' W 015°25'0 0.0
2017-Nov-03 22:30N 28°09' W 015°25'0 0.0
2017-Nov-03 22:00N 28°09' W 015°25'0 0.0
2017-Nov-03 21:30N 28°09' W 015°25'0 0.0
2017-Nov-03 21:00N 28°09' W 015°25'0 0.0
2017-Nov-03 20:30N 28°09' W 015°25'0 0.0
2017-Nov-03 20:00N 28°09' W 015°25'0 0.0
2017-Nov-03 19:30N 28°09' W 015°25'0 0.0
2017-Nov-03 19:00N 28°09' W 015°25'0 0.0
2017-Nov-03 18:30N 28°09' W 015°25'0 0.0
2017-Nov-03 18:00N 28°09' W 015°25'0 0.0
2017-Nov-03 17:30N 28°09' W 015°25'0 0.0
2017-Nov-03 17:00N 28°09' W 015°25'0 0.0
2017-Nov-03 16:30N 28°09' W 015°25'0 0.0
2017-Nov-03 16:00N 28°09' W 015°25'0 0.0
2017-Nov-03 15:30N 28°09' W 015°25'0 0.0
2017-Nov-03 15:00N 28°09' W 015°25'0 0.0
2017-Nov-03 14:30N 28°09' W 015°25'0 0.0
2017-Nov-03 14:00N 28°09' W 015°25'0 0.0
2017-Nov-03 13:30N 28°09' W 015°25'0 0.0
2017-Nov-03 13:00N 28°09' W 015°25'0 0.0
2017-Nov-03 12:30N 28°09' W 015°25'0 0.0
2017-Nov-03 12:00N 28°09' W 015°25'0 0.0
2017-Nov-03 11:30N 28°09' W 015°25'0 0.0
2017-Nov-03 11:00N 28°09' W 015°25'0 0.0
2017-Nov-03 10:30N 28°09' W 015°25'0 0.0
2017-Nov-03 10:00N 28°09' W 015°25'0 0.0
2017-Nov-03 09:30N 28°09' W 015°25'0 0.0
2017-Nov-03 09:00N 28°09' W 015°25'0 0.0
2017-Nov-03 08:30N 28°09' W 015°25'0 0.0
2017-Nov-03 08:00N 28°09' W 015°25'0 0.0
2017-Nov-03 07:30N 28°09' W 015°25'0 0.0
2017-Nov-03 07:00N 28°09' W 015°25'0 0.0
2017-Nov-03 06:30N 28°09' W 015°25'0 0.0
2017-Nov-03 06:00N 28°09' W 015°25'0 0.0
2017-Nov-03 05:30N 28°09' W 015°25'0 0.0
2017-Nov-03 05:00N 28°09' W 015°25'0 0.0
2017-Nov-03 04:30N 28°09' W 015°25'0 0.0
2017-Nov-03 04:00N 28°09' W 015°25'0 0.0
2017-Nov-03 03:30N 28°09' W 015°25'0 0.0
2017-Nov-03 03:00N 28°09' W 015°25'0 0.0
2017-Nov-03 02:30N 28°09' W 015°25'0 0.0
2017-Nov-03 02:00N 28°09' W 015°25'0 0.0
2017-Nov-03 01:30N 28°09' W 015°25'0 0.0
2017-Nov-03 01:00N 28°09' W 015°25'0 0.0
2017-Nov-03 00:30N 28°09' W 015°25'0 0.0
2017-Nov-03 00:00N 28°09' W 015°25'0 0.0
2017-Nov-02 23:30N 28°09' W 015°25'0 0.0
2017-Nov-02 23:00N 28°09' W 015°25'0 0.0
2017-Nov-02 22:30N 28°09' W 015°25'0 0.0
2017-Nov-02 22:00N 28°09' W 015°25'0 0.0
2017-Nov-02 21:30N 28°09' W 015°25'0 0.0
2017-Nov-02 21:00N 28°09' W 015°25'0 0.0
2017-Nov-02 20:30N 28°09' W 015°25'0 0.0
2017-Nov-02 20:00N 28°09' W 015°25'0 0.0
2017-Nov-02 19:30N 28°09' W 015°25'0 0.0
2017-Nov-02 19:00N 28°09' W 015°25'0 0.0
2017-Nov-02 18:30N 28°09' W 015°25'0 0.0
2017-Nov-02 18:00N 28°09' W 015°25'0 0.0
2017-Nov-02 17:30N 28°09' W 015°25'0 0.0
2017-Nov-02 17:00N 28°09' W 015°25'0 0.0
2017-Nov-02 16:30N 28°09' W 015°25'0 0.0
2017-Nov-02 16:00N 28°09' W 015°25'0 0.0
2017-Nov-02 15:30N 28°09' W 015°25'0 0.0
2017-Nov-02 15:00N 28°09' W 015°25'0 0.0
2017-Nov-02 14:30N 28°09' W 015°25'0 0.0
2017-Nov-02 14:00N 28°09' W 015°25'0 0.0
2017-Nov-02 13:30N 28°09' W 015°25'0 0.0
2017-Nov-02 13:00N 28°09' W 015°25'0 0.0
2017-Nov-02 12:30N 28°09' W 015°25'0 0.0
2017-Nov-02 12:00N 28°09' W 015°25'0 0.0
2017-Nov-02 11:30N 28°09' W 015°25'0 0.0
2017-Nov-02 11:00N 28°09' W 015°25'0 0.0
2017-Nov-02 10:30N 28°09' W 015°25'0 0.0
2017-Nov-02 10:00N 28°09' W 015°25'0 0.0
2017-Nov-02 09:30N 28°09' W 015°25'0 0.0
2017-Nov-02 09:00N 28°09' W 015°25'0 0.0
2017-Nov-02 08:30N 28°09' W 015°25'0 0.0
2017-Nov-02 08:00N 28°09' W 015°25'0 0.0
2017-Nov-02 07:30N 28°09' W 015°25'0 0.0
2017-Nov-02 07:00N 28°09' W 015°25'0 0.0
2017-Nov-02 06:30N 28°09' W 015°25'0 0.0
2017-Nov-02 06:00N 28°09' W 015°25'0 0.0
2017-Nov-02 05:30N 28°09' W 015°25'0 0.0
2017-Nov-02 05:00N 28°09' W 015°25'0 0.0
2017-Nov-02 04:30N 28°09' W 015°25'0 0.0
2017-Nov-02 04:00N 28°09' W 015°25'0 0.0
2017-Nov-02 03:30N 28°09' W 015°25'0 0.0
2017-Nov-02 03:00N 28°09' W 015°25'0 0.0
2017-Nov-02 02:30N 28°09' W 015°25'0 0.0
2017-Nov-02 02:00N 28°09' W 015°25'0 0.0
2017-Nov-02 01:30N 28°09' W 015°25'0 0.0
2017-Nov-02 01:00N 28°09' W 015°25'0 0.0
2017-Nov-02 00:30N 28°09' W 015°25'0 0.0
2017-Nov-02 00:00N 28°09' W 015°25'0 0.0
2017-Nov-01 23:30N 28°09' W 015°25'0 0.0
2017-Nov-01 23:00N 28°09' W 015°25'0 0.0
2017-Nov-01 22:30N 28°09' W 015°25'0 0.0
2017-Nov-01 22:00N 28°09' W 015°25'0 0.0
2017-Nov-01 21:30N 28°09' W 015°25'0 0.0
2017-Nov-01 21:00N 28°09' W 015°25'0 0.0
2017-Nov-01 20:30N 28°09' W 015°25'0 0.0
2017-Nov-01 20:00N 28°09' W 015°25'0 0.0
2017-Nov-01 19:30N 28°09' W 015°25'0 0.0
2017-Nov-01 19:00N 28°09' W 015°25'0 0.0
2017-Nov-01 18:30N 28°09' W 015°25'0 0.0
2017-Nov-01 02:00N 28°09' W 015°25'0 0.0
2017-Nov-01 01:30N 28°09' W 015°25'0 0.0
2017-Nov-01 01:00N 28°09' W 015°25'0 0.0
2017-Nov-01 00:30N 28°09' W 015°25'0 0.0
2017-Nov-01 00:00N 28°09' W 015°25'0 0.0
2017-Oct-31 23:30N 28°09' W 015°25'0 0.0
2017-Oct-31 23:00N 28°09' W 015°25'0 0.0
2017-Oct-31 22:30N 28°09' W 015°25'0 0.0
2017-Oct-31 22:00N 28°09' W 015°25'0 0.0
2017-Oct-31 21:30N 28°09' W 015°25'0 0.0
2017-Oct-31 21:00N 28°09' W 015°25'0 0.0
2017-Oct-31 20:30N 28°09' W 015°25'0 0.0
2017-Oct-31 20:00N 28°09' W 015°25'0 0.0
2017-Oct-31 19:30N 28°09' W 015°25'0 0.0
2017-Oct-31 19:00N 28°09' W 015°25'0 0.0
2017-Oct-31 18:30N 28°09' W 015°25'0 0.0
2017-Oct-31 18:00N 28°09' W 015°25'0 0.0
2017-Oct-31 17:30N 28°09' W 015°25'0 0.0
2017-Oct-31 17:00N 28°09' W 015°25'0 0.1
2017-Oct-31 16:30N 28°09' W 015°25'0 0.5
2017-Oct-31 16:01N 28°09' W 015°25'0 0.2
2017-Oct-31 15:30N 28°09' W 015°25'0 0.0
2017-Oct-31 15:00N 28°09' W 015°25'0 0.0
2017-Oct-31 14:30N 28°09' W 015°25'0 0.0
2017-Oct-31 13:48N 28°09' W 015°25'0 0.0
2017-Oct-31 13:30N 28°09' W 015°25'0 0.0
2017-Oct-31 13:00N 28°09' W 015°25'0 0.2
2017-Oct-31 12:30N 28°09' W 015°25'0 0.2
2017-Oct-31 12:00N 28°09' W 015°25'0 0.0
2017-Oct-31 11:30N 28°09' W 015°25'0 0.0
2017-Oct-31 11:00N 28°09' W 015°25'0 0.0
2017-Oct-31 10:30N 28°09' W 015°25'0 0.0
2017-Oct-31 10:00N 28°09' W 015°25'0 0.0
2017-Oct-31 09:30N 28°09' W 015°25'0 0.0
2017-Oct-31 09:01N 28°09' W 015°25'0 0.0
2017-Oct-31 08:30N 28°09' W 015°25'0 0.0
2017-Oct-31 08:01N 28°09' W 015°25'0 0.0
2017-Oct-31 07:31N 28°09' W 015°25'0 0.0
2017-Oct-31 07:01N 28°09' W 015°25'0 0.0
2017-Oct-31 06:30N 28°09' W 015°25'0 0.0
2017-Oct-31 06:01N 28°09' W 015°25'0 0.0
2017-Oct-31 05:31N 28°09' W 015°25'0 0.0
2017-Oct-31 05:01N 28°09' W 015°25'0 0.0
2017-Oct-31 04:31N 28°09' W 015°25'0 0.0
2017-Oct-31 04:00N 28°09' W 015°25'0 0.0
2017-Oct-31 03:31N 28°09' W 015°25'0 0.0
2017-Oct-31 03:00N 28°09' W 015°25'0 0.0
2017-Oct-31 02:31N 28°09' W 015°25'0 0.0
2017-Oct-31 02:00N 28°09' W 015°25'0 0.0
2017-Oct-31 01:30N 28°09' W 015°25'0 0.0
2017-Oct-31 01:00N 28°09' W 015°25'0 0.0
2017-Oct-31 00:30N 28°09' W 015°25'0 0.0
2017-Oct-31 00:00N 28°09' W 015°25'0 0.0
2017-Oct-30 23:30N 28°09' W 015°25'0 0.0
2017-Oct-30 23:00N 28°09' W 015°25'0 0.0
2017-Oct-30 22:30N 28°09' W 015°25'0 0.0
2017-Oct-30 22:00N 28°09' W 015°25'0 0.0
2017-Oct-30 21:30N 28°09' W 015°25'0 0.0
2017-Oct-30 21:00N 28°09' W 015°25'0 0.0
2017-Oct-30 20:30N 28°09' W 015°25'0 0.0
2017-Oct-30 20:00N 28°09' W 015°25'0 0.0
2017-Oct-30 19:30N 28°09' W 015°25'0 0.0
2017-Oct-30 19:00N 28°09' W 015°25'0 0.0
2017-Oct-30 18:30N 28°09' W 015°25'0 0.0
2017-Oct-30 18:00N 28°09' W 015°25'0 0.0
2017-Oct-30 17:31N 28°09' W 015°25'0 0.0
2017-Oct-30 17:01N 28°09' W 015°25'0 0.0
2017-Oct-30 16:30N 28°09' W 015°25'0 0.0
2017-Oct-30 16:00N 28°09' W 015°25'0 0.0
2017-Oct-30 15:30N 28°09' W 015°25'0 0.0
2017-Oct-30 15:01N 28°09' W 015°25'0 0.0
2017-Oct-30 14:01N 28°09' W 015°25'0 0.0
2017-Oct-30 13:30N 28°09' W 015°25'0 0.0
2017-Oct-30 13:01N 28°09' W 015°25'0 0.0
2017-Oct-30 12:30N 28°09' W 015°25'0 0.0
2017-Oct-30 12:00N 28°09' W 015°25'0 0.0
2017-Oct-30 11:30N 28°09' W 015°25'0 0.0
2017-Oct-30 11:00N 28°09' W 015°25'0 0.0
2017-Oct-30 10:30N 28°09' W 015°25'0 0.0
2017-Oct-30 10:00N 28°09' W 015°25'0 0.0
2017-Oct-30 09:30N 28°09' W 015°25'0 0.0
2017-Oct-30 09:00N 28°09' W 015°25'0 0.0
2017-Oct-30 08:30N 28°09' W 015°25'0 0.0
2017-Oct-30 08:00N 28°09' W 015°25'0 0.0
2017-Oct-30 07:30N 28°09' W 015°25'0 0.0
2017-Oct-30 07:00N 28°09' W 015°25'0 0.0
2017-Oct-30 06:30N 28°09' W 015°25'0 0.0
2017-Oct-30 06:00N 28°09' W 015°25'0 0.0
2017-Oct-30 05:30N 28°09' W 015°25'0 0.0
2017-Oct-30 05:00N 28°09' W 015°25'0 0.0
2017-Oct-30 04:30N 28°09' W 015°25'0 0.0
2017-Oct-30 04:01N 28°09' W 015°25'0 0.0
2017-Oct-30 03:31N 28°09' W 015°25'0 0.0
2017-Oct-30 03:00N 28°09' W 015°25'0 0.0
2017-Oct-30 02:31N 28°09' W 015°25'0 0.0
2017-Oct-30 02:00N 28°09' W 015°25'0 0.0
2017-Oct-30 01:31N 28°09' W 015°25'0 0.0
2017-Oct-30 01:01N 28°09' W 015°25'0 0.0
2017-Oct-30 00:30N 28°09' W 015°25'0 0.0
2017-Oct-30 00:00N 28°09' W 015°25'0 0.0
2017-Oct-29 23:30N 28°09' W 015°25'0 0.0
2017-Oct-29 23:01N 28°09' W 015°25'0 0.0
2017-Oct-29 22:31N 28°09' W 015°25'0 0.0
2017-Oct-29 22:00N 28°09' W 015°25'0 0.0
2017-Oct-29 21:30N 28°09' W 015°25'0 0.0
2017-Oct-29 21:00N 28°09' W 015°25'0 0.0
2017-Oct-29 20:30N 28°09' W 015°25'0 0.0
2017-Oct-29 20:00N 28°09' W 015°25'0 0.0
2017-Oct-29 19:30N 28°09' W 015°25'0 0.0
2017-Oct-29 19:00N 28°09' W 015°25'0 0.0
2017-Oct-29 18:30N 28°09' W 015°25'0 0.0
2017-Oct-29 18:00N 28°09' W 015°25'0 0.0
2017-Oct-29 17:30N 28°09' W 015°25'0 0.0
2017-Oct-29 17:00N 28°09' W 015°25'0 0.0
2017-Oct-29 16:30N 28°09' W 015°25'0 0.0
2017-Oct-29 16:00N 28°09' W 015°25'0 0.0
2017-Oct-29 15:30N 28°09' W 015°25'0 0.0
2017-Oct-29 15:00N 28°09' W 015°25'0 0.0
2017-Oct-29 14:31N 28°09' W 015°25'0 0.0
2017-Oct-29 14:01N 28°09' W 015°25'0 0.0
2017-Oct-29 13:31N 28°09' W 015°25'0 0.0
2017-Oct-29 13:01N 28°09' W 015°25'0 0.0
2017-Oct-29 12:31N 28°09' W 015°25'0 0.0
2017-Oct-29 12:00N 28°09' W 015°25'0 0.0
2017-Oct-29 11:30N 28°09' W 015°25'0 0.0
2017-Oct-29 11:01N 28°09' W 015°25'0 0.0
2017-Oct-29 10:31N 28°09' W 015°25'0 0.0
2017-Oct-29 10:01N 28°09' W 015°25'0 0.0
2017-Oct-29 09:31N 28°09' W 015°25'0 0.0
2017-Oct-29 09:01N 28°09' W 015°25'0 0.0
2017-Oct-29 08:31N 28°09' W 015°25'0 0.0
2017-Oct-29 08:00N 28°09' W 015°25'0 0.0
2017-Oct-29 07:30N 28°09' W 015°25'0 0.0
2017-Oct-29 07:00N 28°09' W 015°25'0 0.0
2017-Oct-29 06:30N 28°09' W 015°25'0 0.0
2017-Oct-29 06:00N 28°09' W 015°25'0 0.0
2017-Oct-29 05:30N 28°09' W 015°25'0 0.0
2017-Oct-29 05:00N 28°09' W 015°25'0 0.0
2017-Oct-29 04:30N 28°09' W 015°25'0 0.0
2017-Oct-29 04:00N 28°09' W 015°25'0 0.0
2017-Oct-28 19:01N 28°09' W 015°25'0 0.0
2017-Oct-28 18:31N 28°09' W 015°25'  
Track history (hours):
 
Tides and Currents Weather Stations Pressure Air Temp Water Temp Dewpoint Dewpoint Depression Visibility Wind Speed Wind Dir Waves Ship Positions

Ocean Atlantic

Last reported at 2017-Nov-07 18:23 UTC. Time now 2017-Nov-24 23:59 UTC.
Position N 27°40' W 015°19'.
Warning: this ship's position is 17 days out of date.

Length 140 m; draft 5.7 m.

Type: Passenger vessel. MMSI: 311000422.

Date/timePositionNaut miles runAvg speedWind from/ knotsBaromVisibWave heightAir tempDewpointWater temp
2017-Nov-07 18:23N 27°40' W 015°19'4 9.3
2017-Nov-07 18:00N 27°44' W 015°18'5 9.9
2017-Nov-07 17:30N 27°48' W 015°17'5 9.5
2017-Nov-07 17:00N 27°53' W 015°16'510.0
2017-Nov-07 16:30N 27°58' W 015°17'5 9.3
2017-Nov-07 16:00N 28°02' W 015°19'4 8.3
2017-Nov-07 15:30N 28°06' W 015°21'4 7.4
2017-Nov-07 15:00N 28°08' W 015°25'1 1.8
2017-Nov-07 14:24N 28°09' W 015°25'0 0.0
2017-Nov-07 13:54N 28°09' W 015°25'0 0.0
2017-Nov-07 13:24N 28°09' W 015°25'0 0.0
2017-Nov-07 12:54N 28°09' W 015°25'0 0.0
2017-Nov-07 12:24N 28°09' W 015°25'0 0.0
2017-Nov-07 11:54N 28°09' W 015°25'0 0.0
2017-Nov-07 11:24N 28°09' W 015°25'0 0.0
2017-Nov-07 10:57N 28°09' W 015°25'0 0.0
2017-Nov-07 10:27N 28°09' W 015°25'0 0.0
2017-Nov-07 09:57N 28°09' W 015°25'0 0.0
2017-Nov-07 09:27N 28°09' W 015°25'0 0.0
2017-Nov-07 08:57N 28°09' W 015°25'0 0.0
2017-Nov-07 08:30N 28°09' W 015°25'0 0.0
2017-Nov-07 08:00N 28°09' W 015°25'0 0.0
2017-Nov-07 07:30N 28°09' W 015°25'0 0.0
2017-Nov-07 07:00N 28°09' W 015°25'0 0.0
2017-Nov-07 06:30N 28°09' W 015°25'0 0.0
2017-Nov-07 06:00N 28°09' W 015°25'0 0.0
2017-Nov-07 05:30N 28°09' W 015°25'0 0.0
2017-Nov-07 05:00N 28°09' W 015°25'0 0.0
2017-Nov-07 04:30N 28°09' W 015°25'0 0.0
2017-Nov-07 04:00N 28°09' W 015°25'0 0.0
2017-Nov-07 03:30N 28°09' W 015°25'0 0.0
2017-Nov-07 03:00N 28°09' W 015°25'0 0.0
2017-Nov-07 02:30N 28°09' W 015°25'0 0.0
2017-Nov-07 02:00N 28°09' W 015°25'0 0.0
2017-Nov-07 01:21N 28°09' W 015°25'0 0.0
2017-Nov-07 00:51N 28°09' W 015°25'0 0.0
2017-Nov-07 00:24N 28°09' W 015°25'0 0.0
2017-Nov-06 23:54N 28°09' W 015°25'0 0.0
2017-Nov-06 23:24N 28°09' W 015°25'0 0.0
2017-Nov-06 22:54N 28°09' W 015°25'0 0.0
2017-Nov-06 22:24N 28°09' W 015°25'0 0.0
2017-Nov-06 21:51N 28°09' W 015°25'0 0.0
2017-Nov-06 21:27N 28°09' W 015°25'0 0.0
2017-Nov-06 20:57N 28°09' W 015°25'0 0.0
2017-Nov-06 20:27N 28°09' W 015°25'0 0.0
2017-Nov-06 02:30N 28°09' W 015°25'0 0.0
2017-Nov-06 02:00N 28°09' W 015°25'0 0.0
2017-Nov-06 01:30N 28°09' W 015°25'0 0.0
2017-Nov-06 01:00N 28°09' W 015°25'0 0.0
2017-Nov-06 00:30N 28°09' W 015°25'0 0.0
2017-Nov-06 00:00N 28°09' W 015°25'0 0.0
2017-Nov-05 23:30N 28°09' W 015°25'0 0.0
2017-Nov-05 23:00N 28°09' W 015°25'0 0.0
2017-Nov-05 22:30N 28°09' W 015°25'0 0.0
2017-Nov-05 22:00N 28°09' W 015°25'1 2.1
2017-Nov-05 21:30N 28°08' W 015°25'2 4.0
2017-Nov-05 21:00N 28°07' W 015°23'1 1.2
2017-Nov-05 20:30N 28°07' W 015°23'5 9.6
2017-Nov-05 20:00N 28°04' W 015°18'714.6
2017-Nov-05 19:30N 27°57' W 015°15'714.3
2017-Nov-05 19:00N 27°51' W 015°11'612.4
2017-Nov-05 18:30N 27°47' W 015°05'3 6.9
2017-Nov-05 18:00N 27°45' W 015°03'1 1.9
2017-Nov-05 17:30N 27°45' W 015°02'1 1.8
2017-Nov-05 17:00N 27°46' W 015°01'1 1.8
2017-Nov-05 16:30N 27°47' W 015°00'1 2.4
2017-Nov-05 16:00N 27°46' W 015°01'3 6.5
2017-Nov-05 15:28N 27°46' W 015°05'510.8
2017-Nov-05 15:00N 27°49' W 015°10'611.7
2017-Nov-05 14:30N 27°54' W 015°13'5 9.3
2017-Nov-05 14:00N 27°58' W 015°16'612.8
2017-Nov-05 13:30N 28°04' W 015°19'5 9.7
2017-Nov-05 13:00N 28°07' W 015°23'3 5.4
2017-Nov-05 12:30N 28°09' W 015°25'0 0.3
2017-Nov-05 12:00N 28°09' W 015°25'0 0.0
2017-Nov-05 11:30N 28°09' W 015°25'0 0.0
2017-Nov-05 11:00N 28°09' W 015°25'0 0.0
2017-Nov-05 10:30N 28°09' W 015°25'0 0.0
2017-Nov-05 10:00N 28°09' W 015°25'0 0.0
2017-Nov-05 09:30N 28°09' W 015°25'0 0.0
2017-Nov-05 09:00N 28°09' W 015°25'0 0.0
2017-Nov-05 08:30N 28°09' W 015°25'0 0.0
2017-Nov-05 08:00N 28°09' W 015°25'0 0.0
2017-Nov-05 07:30N 28°09' W 015°25'0 0.0
2017-Nov-05 07:00N 28°09' W 015°25'0 0.0
2017-Nov-05 06:30N 28°09' W 015°25'0 0.0
2017-Nov-05 06:00N 28°09' W 015°25'0 0.0
2017-Nov-05 05:30N 28°09' W 015°25'0 0.0
2017-Nov-05 05:00N 28°09' W 015°25'0 0.0
2017-Nov-05 04:30N 28°09' W 015°25'0 0.0
2017-Nov-05 04:00N 28°09' W 015°25'0 0.0
2017-Nov-05 03:30N 28°09' W 015°25'0 0.0
2017-Nov-05 03:00N 28°09' W 015°25'0 0.0
2017-Nov-05 02:30N 28°09' W 015°25'0 0.0
2017-Nov-05 02:00N 28°09' W 015°25'0 0.0
2017-Nov-05 01:30N 28°09' W 015°25'0 0.0
2017-Nov-05 01:00N 28°09' W 015°25'0 0.0
2017-Nov-05 00:30N 28°09' W 015°25'0 0.0
2017-Nov-05 00:00N 28°09' W 015°25'0 0.0
2017-Nov-04 23:30N 28°09' W 015°25'0 0.0
2017-Nov-04 23:00N 28°09' W 015°25'0 0.0
2017-Nov-04 22:30N 28°09' W 015°25'0 0.0
2017-Nov-04 22:00N 28°09' W 015°25'0 0.0
2017-Nov-04 21:30N 28°09' W 015°25'0 0.0
2017-Nov-04 21:00N 28°09' W 015°25'0 0.0
2017-Nov-04 20:30N 28°09' W 015°25'0 0.0
2017-Nov-04 20:00N 28°09' W 015°25'0 0.0
2017-Nov-04 19:30N 28°09' W 015°25'0 0.0
2017-Nov-04 19:00N 28°09' W 015°25'0 0.0
2017-Nov-04 18:30N 28°09' W 015°25'0 0.0
2017-Nov-04 18:00N 28°09' W 015°25'0 0.0
2017-Nov-04 17:30N 28°09' W 015°25'0 0.0
2017-Nov-04 17:00N 28°09' W 015°25'0 0.0
2017-Nov-04 16:30N 28°09' W 015°25'0 0.0
2017-Nov-04 16:00N 28°09' W 015°25'0 0.0
2017-Nov-04 15:30N 28°09' W 015°25'0 0.0
2017-Nov-04 15:00N 28°09' W 015°25'0 0.0
2017-Nov-04 14:30N 28°09' W 015°25'0 0.0
2017-Nov-04 14:00N 28°09' W 015°25'0 0.0
2017-Nov-04 13:30N 28°09' W 015°25'0 0.0
2017-Nov-04 13:00N 28°09' W 015°25'0 0.0
2017-Nov-04 12:30N 28°09' W 015°25'0 0.0
2017-Nov-04 12:00N 28°09' W 015°25'0 0.0
2017-Nov-04 11:30N 28°09' W 015°25'0 0.0
2017-Nov-04 11:00N 28°09' W 015°25'0 0.0
2017-Nov-04 10:30N 28°09' W 015°25'0 0.0
2017-Nov-04 10:00N 28°09' W 015°25'0 0.0
2017-Nov-04 09:30N 28°09' W 015°25'0 0.0
2017-Nov-04 09:00N 28°09' W 015°25'0 0.0
2017-Nov-04 08:30N 28°09' W 015°25'0 0.0
2017-Nov-04 08:00N 28°09' W 015°25'0 0.0
2017-Nov-04 07:30N 28°09' W 015°25'0 0.0
2017-Nov-04 07:00N 28°09' W 015°25'0 0.0
2017-Nov-04 06:30N 28°09' W 015°25'0 0.0
2017-Nov-04 06:00N 28°09' W 015°25'0 0.0
2017-Nov-04 05:30N 28°09' W 015°25'0 0.0
2017-Nov-04 05:00N 28°09' W 015°25'0 0.0
2017-Nov-04 04:30N 28°09' W 015°25'0 0.0
2017-Nov-04 04:00N 28°09' W 015°25'0 0.0
2017-Nov-04 03:30N 28°09' W 015°25'0 0.0
2017-Nov-04 03:00N 28°09' W 015°25'0 0.0
2017-Nov-04 02:30N 28°09' W 015°25'0 0.0
2017-Nov-04 02:00N 28°09' W 015°25'0 0.0
2017-Nov-04 01:30N 28°09' W 015°25'0 0.0
2017-Nov-04 01:00N 28°09' W 015°25'0 0.0
2017-Nov-04 00:30N 28°09' W 015°25'0 0.0
2017-Nov-04 00:00N 28°09' W 015°25'0 0.0
2017-Nov-03 23:30N 28°09' W 015°25'0 0.0
2017-Nov-03 23:00N 28°09' W 015°25'0 0.0
2017-Nov-03 22:30N 28°09' W 015°25'0 0.0
2017-Nov-03 22:00N 28°09' W 015°25'0 0.0
2017-Nov-03 21:30N 28°09' W 015°25'0 0.0
2017-Nov-03 21:00N 28°09' W 015°25'0 0.0
2017-Nov-03 20:30N 28°09' W 015°25'0 0.0
2017-Nov-03 20:00N 28°09' W 015°25'0 0.0
2017-Nov-03 19:30N 28°09' W 015°25'0 0.0
2017-Nov-03 19:00N 28°09' W 015°25'0 0.0
2017-Nov-03 18:30N 28°09' W 015°25'0 0.0
2017-Nov-03 18:00N 28°09' W 015°25'0 0.0
2017-Nov-03 17:30N 28°09' W 015°25'0 0.0
2017-Nov-03 17:00N 28°09' W 015°25'0 0.0
2017-Nov-03 16:30N 28°09' W 015°25'0 0.0
2017-Nov-03 16:00N 28°09' W 015°25'0 0.0
2017-Nov-03 15:30N 28°09' W 015°25'0 0.0
2017-Nov-03 15:00N 28°09' W 015°25'0 0.0
2017-Nov-03 14:30N 28°09' W 015°25'0 0.0
2017-Nov-03 14:00N 28°09' W 015°25'0 0.0
2017-Nov-03 13:30N 28°09' W 015°25'0 0.0
2017-Nov-03 13:00N 28°09' W 015°25'0 0.0
2017-Nov-03 12:30N 28°09' W 015°25'0 0.0
2017-Nov-03 12:00N 28°09' W 015°25'0 0.0
2017-Nov-03 11:30N 28°09' W 015°25'0 0.0
2017-Nov-03 11:00N 28°09' W 015°25'0 0.0
2017-Nov-03 10:30N 28°09' W 015°25'0 0.0
2017-Nov-03 10:00N 28°09' W 015°25'0 0.0
2017-Nov-03 09:30N 28°09' W 015°25'0 0.0
2017-Nov-03 09:00N 28°09' W 015°25'0 0.0
2017-Nov-03 08:30N 28°09' W 015°25'0 0.0
2017-Nov-03 08:00N 28°09' W 015°25'0 0.0
2017-Nov-03 07:30N 28°09' W 015°25'0 0.0
2017-Nov-03 07:00N 28°09' W 015°25'0 0.0
2017-Nov-03 06:30N 28°09' W 015°25'0 0.0
2017-Nov-03 06:00N 28°09' W 015°25'0 0.0
2017-Nov-03 05:30N 28°09' W 015°25'0 0.0
2017-Nov-03 05:00N 28°09' W 015°25'0 0.0
2017-Nov-03 04:30N 28°09' W 015°25'0 0.0
2017-Nov-03 04:00N 28°09' W 015°25'0 0.0
2017-Nov-03 03:30N 28°09' W 015°25'0 0.0
2017-Nov-03 03:00N 28°09' W 015°25'0 0.0
2017-Nov-03 02:30N 28°09' W 015°25'0 0.0
2017-Nov-03 02:00N 28°09' W 015°25'0 0.0
2017-Nov-03 01:30N 28°09' W 015°25'0 0.0
2017-Nov-03 01:00N 28°09' W 015°25'0 0.0
2017-Nov-03 00:30N 28°09' W 015°25'0 0.0
2017-Nov-03 00:00N 28°09' W 015°25'0 0.0
2017-Nov-02 23:30N 28°09' W 015°25'0 0.0
2017-Nov-02 23:00N 28°09' W 015°25'0 0.0
2017-Nov-02 22:30N 28°09' W 015°25'0 0.0
2017-Nov-02 22:00N 28°09' W 015°25'0 0.0
2017-Nov-02 21:30N 28°09' W 015°25'0 0.0
2017-Nov-02 21:00N 28°09' W 015°25'0 0.0
2017-Nov-02 20:30N 28°09' W 015°25'0 0.0
2017-Nov-02 20:00N 28°09' W 015°25'0 0.0
2017-Nov-02 19:30N 28°09' W 015°25'0 0.0
2017-Nov-02 19:00N 28°09' W 015°25'0 0.0
2017-Nov-02 18:30N 28°09' W 015°25'0 0.0
2017-Nov-02 18:00N 28°09' W 015°25'0 0.0
2017-Nov-02 17:30N 28°09' W 015°25'0 0.0
2017-Nov-02 17:00N 28°09' W 015°25'0 0.0
2017-Nov-02 16:30N 28°09' W 015°25'0 0.0
2017-Nov-02 16:00N 28°09' W 015°25'0 0.0
2017-Nov-02 15:30N 28°09' W 015°25'0 0.0
2017-Nov-02 15:00N 28°09' W 015°25'0 0.0
2017-Nov-02 14:30N 28°09' W 015°25'0 0.0
2017-Nov-02 14:00N 28°09' W 015°25'0 0.0
2017-Nov-02 13:30N 28°09' W 015°25'0 0.0
2017-Nov-02 13:00N 28°09' W 015°25'0 0.0
2017-Nov-02 12:30N 28°09' W 015°25'0 0.0
2017-Nov-02 12:00N 28°09' W 015°25'0 0.0
2017-Nov-02 11:30N 28°09' W 015°25'0 0.0
2017-Nov-02 11:00N 28°09' W 015°25'0 0.0
2017-Nov-02 10:30N 28°09' W 015°25'0 0.0
2017-Nov-02 10:00N 28°09' W 015°25'0 0.0
2017-Nov-02 09:30N 28°09' W 015°25'0 0.0
2017-Nov-02 09:00N 28°09' W 015°25'0 0.0
2017-Nov-02 08:30N 28°09' W 015°25'0 0.0
2017-Nov-02 08:00N 28°09' W 015°25'0 0.0
2017-Nov-02 07:30N 28°09' W 015°25'0 0.0
2017-Nov-02 07:00N 28°09' W 015°25'0 0.0
2017-Nov-02 06:30N 28°09' W 015°25'0 0.0
2017-Nov-02 06:00N 28°09' W 015°25'0 0.0
2017-Nov-02 05:30N 28°09' W 015°25'0 0.0
2017-Nov-02 05:00N 28°09' W 015°25'0 0.0
2017-Nov-02 04:30N 28°09' W 015°25'0 0.0
2017-Nov-02 04:00N 28°09' W 015°25'0 0.0
2017-Nov-02 03:30N 28°09' W 015°25'0 0.0
2017-Nov-02 03:00N 28°09' W 015°25'0 0.0
2017-Nov-02 02:30N 28°09' W 015°25'0 0.0
2017-Nov-02 02:00N 28°09' W 015°25'0 0.0
2017-Nov-02 01:30N 28°09' W 015°25'0 0.0
2017-Nov-02 01:00N 28°09' W 015°25'0 0.0
2017-Nov-02 00:30N 28°09' W 015°25'0 0.0
2017-Nov-02 00:00N 28°09' W 015°25'0 0.0
2017-Nov-01 23:30N 28°09' W 015°25'0 0.0
2017-Nov-01 23:00N 28°09' W 015°25'0 0.0
2017-Nov-01 22:30N 28°09' W 015°25'0 0.0
2017-Nov-01 22:00N 28°09' W 015°25'0 0.0
2017-Nov-01 21:30N 28°09' W 015°25'0 0.0
2017-Nov-01 21:00N 28°09' W 015°25'0 0.0
2017-Nov-01 20:30N 28°09' W 015°25'0 0.0
2017-Nov-01 20:00N 28°09' W 015°25'0 0.0
2017-Nov-01 19:30N 28°09' W 015°25'0 0.0
2017-Nov-01 19:00N 28°09' W 015°25'0 0.0
2017-Nov-01 18:30N 28°09' W 015°25'0 0.0
2017-Nov-01 02:00N 28°09' W 015°25'0 0.0
2017-Nov-01 01:30N 28°09' W 015°25'0 0.0
2017-Nov-01 01:00N 28°09' W 015°25'0 0.0
2017-Nov-01 00:30N 28°09' W 015°25'0 0.0
2017-Nov-01 00:00N 28°09' W 015°25'0 0.0
2017-Oct-31 23:30N 28°09' W 015°25'0 0.0
2017-Oct-31 23:00N 28°09' W 015°25'0 0.0
2017-Oct-31 22:30N 28°09' W 015°25'0 0.0
2017-Oct-31 22:00N 28°09' W 015°25'0 0.0
2017-Oct-31 21:30N 28°09' W 015°25'0 0.0
2017-Oct-31 21:00N 28°09' W 015°25'0 0.0
2017-Oct-31 20:30N 28°09' W 015°25'0 0.0
2017-Oct-31 20:00N 28°09' W 015°25'0 0.0
2017-Oct-31 19:30N 28°09' W 015°25'0 0.0
2017-Oct-31 19:00N 28°09' W 015°25'0 0.0
2017-Oct-31 18:30N 28°09' W 015°25'0 0.0
2017-Oct-31 18:00N 28°09' W 015°25'0 0.0
2017-Oct-31 17:30N 28°09' W 015°25'0 0.0
2017-Oct-31 17:00N 28°09' W 015°25'0 0.1
2017-Oct-31 16:30N 28°09' W 015°25'0 0.5
2017-Oct-31 16:01N 28°09' W 015°25'0 0.2
2017-Oct-31 15:30N 28°09' W 015°25'0 0.0
2017-Oct-31 15:00N 28°09' W 015°25'0 0.0
2017-Oct-31 14:30N 28°09' W 015°25'0 0.0
2017-Oct-31 13:48N 28°09' W 015°25'0 0.0
2017-Oct-31 13:30N 28°09' W 015°25'0 0.0
2017-Oct-31 13:00N 28°09' W 015°25'0 0.2
2017-Oct-31 12:30N 28°09' W 015°25'0 0.2
2017-Oct-31 12:00N 28°09' W 015°25'0 0.0
2017-Oct-31 11:30N 28°09' W 015°25'0 0.0
2017-Oct-31 11:00N 28°09' W 015°25'0 0.0
2017-Oct-31 10:30N 28°09' W 015°25'0 0.0
2017-Oct-31 10:00N 28°09' W 015°25'0 0.0
2017-Oct-31 09:30N 28°09' W 015°25'0 0.0
2017-Oct-31 09:01N 28°09' W 015°25'0 0.0
2017-Oct-31 08:30N 28°09' W 015°25'0 0.0
2017-Oct-31 08:01N 28°09' W 015°25'0 0.0
2017-Oct-31 07:31N 28°09' W 015°25'0 0.0
2017-Oct-31 07:01N 28°09' W 015°25'0 0.0
2017-Oct-31 06:30N 28°09' W 015°25'0 0.0
2017-Oct-31 06:01N 28°09' W 015°25'0 0.0
2017-Oct-31 05:31N 28°09' W 015°25'0 0.0
2017-Oct-31 05:01N 28°09' W 015°25'0 0.0
2017-Oct-31 04:31N 28°09' W 015°25'0 0.0
2017-Oct-31 04:00N 28°09' W 015°25'0 0.0
2017-Oct-31 03:31N 28°09' W 015°25'0 0.0
2017-Oct-31 03:00N 28°09' W 015°25'0 0.0
2017-Oct-31 02:31N 28°09' W 015°25'0 0.0
2017-Oct-31 02:00N 28°09' W 015°25'0 0.0
2017-Oct-31 01:30N 28°09' W 015°25'0 0.0
2017-Oct-31 01:00N 28°09' W 015°25'0 0.0
2017-Oct-31 00:30N 28°09' W 015°25'0 0.0
2017-Oct-31 00:00N 28°09' W 015°25'0 0.0
2017-Oct-30 23:30N 28°09' W 015°25'0 0.0
2017-Oct-30 23:00N 28°09' W 015°25'0 0.0
2017-Oct-30 22:30N 28°09' W 015°25'0 0.0
2017-Oct-30 22:00N 28°09' W 015°25'0 0.0
2017-Oct-30 21:30N 28°09' W 015°25'0 0.0
2017-Oct-30 21:00N 28°09' W 015°25'0 0.0
2017-Oct-30 20:30N 28°09' W 015°25'0 0.0
2017-Oct-30 20:00N 28°09' W 015°25'0 0.0
2017-Oct-30 19:30N 28°09' W 015°25'0 0.0
2017-Oct-30 19:00N 28°09' W 015°25'0 0.0
2017-Oct-30 18:30N 28°09' W 015°25'0 0.0
2017-Oct-30 18:00N 28°09' W 015°25'0 0.0
2017-Oct-30 17:31N 28°09' W 015°25'0 0.0
2017-Oct-30 17:01N 28°09' W 015°25'0 0.0
2017-Oct-30 16:30N 28°09' W 015°25'0 0.0
2017-Oct-30 16:00N 28°09' W 015°25'0 0.0
2017-Oct-30 15:30N 28°09' W 015°25'0 0.0
2017-Oct-30 15:01N 28°09' W 015°25'0 0.0
2017-Oct-30 14:01N 28°09' W 015°25'0 0.0
2017-Oct-30 13:30N 28°09' W 015°25'0 0.0
2017-Oct-30 13:01N 28°09' W 015°25'0 0.0
2017-Oct-30 12:30N 28°09' W 015°25'0 0.0
2017-Oct-30 12:00N 28°09' W 015°25'0 0.0
2017-Oct-30 11:30N 28°09' W 015°25'0 0.0
2017-Oct-30 11:00N 28°09' W 015°25'0 0.0
2017-Oct-30 10:30N 28°09' W 015°25'0 0.0
2017-Oct-30 10:00N 28°09' W 015°25'0 0.0
2017-Oct-30 09:30N 28°09' W 015°25'0 0.0
2017-Oct-30 09:00N 28°09' W 015°25'0 0.0
2017-Oct-30 08:30N 28°09' W 015°25'0 0.0
2017-Oct-30 08:00N 28°09' W 015°25'0 0.0
2017-Oct-30 07:30N 28°09' W 015°25'0 0.0
2017-Oct-30 07:00N 28°09' W 015°25'0 0.0
2017-Oct-30 06:30N 28°09' W 015°25'0 0.0
2017-Oct-30 06:00N 28°09' W 015°25'0 0.0
2017-Oct-30 05:30N 28°09' W 015°25'0 0.0
2017-Oct-30 05:00N 28°09' W 015°25'0 0.0
2017-Oct-30 04:30N 28°09' W 015°25'0 0.0
2017-Oct-30 04:01N 28°09' W 015°25'0 0.0
2017-Oct-30 03:31N 28°09' W 015°25'0 0.0
2017-Oct-30 03:00N 28°09' W 015°25'0 0.0
2017-Oct-30 02:31N 28°09' W 015°25'0 0.0
2017-Oct-30 02:00N 28°09' W 015°25'0 0.0
2017-Oct-30 01:31N 28°09' W 015°25'0 0.0
2017-Oct-30 01:01N 28°09' W 015°25'0 0.0
2017-Oct-30 00:30N 28°09' W 015°25'0 0.0
2017-Oct-30 00:00N 28°09' W 015°25'0 0.0
2017-Oct-29 23:30N 28°09' W 015°25'0 0.0
2017-Oct-29 23:01N 28°09' W 015°25'0 0.0
2017-Oct-29 22:31N 28°09' W 015°25'0 0.0
2017-Oct-29 22:00N 28°09' W 015°25'0 0.0
2017-Oct-29 21:30N 28°09' W 015°25'0 0.0
2017-Oct-29 21:00N 28°09' W 015°25'0 0.0
2017-Oct-29 20:30N 28°09' W 015°25'0 0.0
2017-Oct-29 20:00N 28°09' W 015°25'0 0.0
2017-Oct-29 19:30N 28°09' W 015°25'0 0.0
2017-Oct-29 19:00N 28°09' W 015°25'0 0.0
2017-Oct-29 18:30N 28°09' W 015°25'0 0.0
2017-Oct-29 18:00N 28°09' W 015°25'0 0.0
2017-Oct-29 17:30N 28°09' W 015°25'0 0.0
2017-Oct-29 17:00N 28°09' W 015°25'0 0.0
2017-Oct-29 16:30N 28°09' W 015°25'0 0.0
2017-Oct-29 16:00N 28°09' W 015°25'0 0.0
2017-Oct-29 15:30N 28°09' W 015°25'0 0.0
2017-Oct-29 15:00N 28°09' W 015°25'0 0.0
2017-Oct-29 14:31N 28°09' W 015°25'0 0.0
2017-Oct-29 14:01N 28°09' W 015°25'0 0.0
2017-Oct-29 13:31N 28°09' W 015°25'0 0.0
2017-Oct-29 13:01N 28°09' W 015°25'0 0.0
2017-Oct-29 12:31N 28°09' W 015°25'0 0.0
2017-Oct-29 12:00N 28°09' W 015°25'0 0.0
2017-Oct-29 11:30N 28°09' W 015°25'0 0.0
2017-Oct-29 11:01N 28°09' W 015°25'0 0.0
2017-Oct-29 10:31N 28°09' W 015°25'0 0.0
2017-Oct-29 10:01N 28°09' W 015°25'0 0.0
2017-Oct-29 09:31N 28°09' W 015°25'0 0.0
2017-Oct-29 09:01N 28°09' W 015°25'0 0.0
2017-Oct-29 08:31N 28°09' W 015°25'0 0.0
2017-Oct-29 08:00N 28°09' W 015°25'0 0.0
2017-Oct-29 07:30N 28°09' W 015°25'0 0.0
2017-Oct-29 07:00N 28°09' W 015°25'0 0.0
2017-Oct-29 06:30N 28°09' W 015°25'0 0.0
2017-Oct-29 06:00N 28°09' W 015°25'0 0.0
2017-Oct-29 05:30N 28°09' W 015°25'0 0.0
2017-Oct-29 05:00N 28°09' W 015°25'0 0.0
2017-Oct-29 04:30N 28°09' W 015°25'0 0.0
2017-Oct-29 04:00N 28°09' W 015°25'0 0.0
2017-Oct-28 19:01N 28°09' W 015°25'0 0.0
2017-Oct-28 18:31N 28°09' W 015°25'  

Dump ship's entire track history